Time,TemperatureF,DewpointF,PressureIn,WindDirection,WindDirectionDegrees,WindSpeedMPH,WindSpeedGustMPH,Humidity,HourlyPrecipIn,Conditions,Clouds,dailyrainin,SolarRadiationWatts/m^2,SoftwareType,DateUTC
2013-09-14 00:00:00,65.0,46.0,-100.00,WSW,250,2.0,6.0,51,0.00,,,0.00,0.000000,,2013-09-14 07:00:00,
2013-09-14 00:42:00,65.0,46.0,-100.00,WSW,250,2.0,6.0,51,0.00,,,0.00,0.000000,,2013-09-14 07:42:00,
2013-09-14 00:52:00,65.0,46.0,-100.00,WSW,250,2.0,6.0,51,0.00,,,0.00,0.000000,,2013-09-14 07:52:00,
2013-09-14 01:00:00,63.0,47.0,-100.00,North,359,2.0,5.0,55,0.00,,,0.00,0.000000,,2013-09-14 08:00:00,
2013-09-14 01:22:00,63.0,47.0,-100.00,North,359,2.0,5.0,55,0.00,,,0.00,0.000000,,2013-09-14 08:22:00,
2013-09-14 01:32:00,63.0,47.0,-100.00,North,359,2.0,5.0,55,0.00,,,0.00,0.000000,,2013-09-14 08:32:00,
2013-09-14 01:42:00,63.0,47.0,-100.00,North,359,2.0,5.0,55,0.00,,,0.00,0.000000,,2013-09-14 08:42:00,
2013-09-14 01:52:00,63.0,47.0,-100.00,North,359,2.0,5.0,55,0.00,,,0.00,0.000000,,2013-09-14 08:52:00,
2013-09-14 02:00:00,64.0,49.0,-100.00,NNW,347,0.0,4.0,58,0.00,,,0.00,0.000000,,2013-09-14 09:00:00,
2013-09-14 02:22:00,64.0,49.0,-100.00,NNW,347,0.0,4.0,58,0.00,,,0.00,0.000000,,2013-09-14 09:22:00,
2013-09-14 02:33:00,64.0,49.0,-100.00,NNW,347,0.0,4.0,58,0.00,,,0.00,0.000000,,2013-09-14 09:33:00,
2013-09-14 02:43:00,64.0,49.0,-100.00,NNW,347,0.0,4.0,58,0.00,,,0.00,0.000000,,2013-09-14 09:43:00,
2013-09-14 02:53:00,64.0,49.0,-100.00,NNW,347,0.0,4.0,58,0.00,,,0.00,0.000000,,2013-09-14 09:53:00,
2013-09-14 03:00:00,61.0,47.0,-100.00,North,349,0.0,5.0,59,0.00,,,-99.99,0.000000,,2013-09-14 10:00:00,
2013-09-14 03:42:00,61.0,47.0,-100.00,North,349,0.0,5.0,59,0.00,,,-99.99,0.000000,,2013-09-14 10:42:00,
2013-09-14 03:53:00,61.0,47.0,-100.00,North,349,0.0,5.0,59,0.00,,,-99.99,0.000000,,2013-09-14 10:53:00,
2013-09-14 04:00:00,62.0,47.0,-100.00,NNE,16,1.0,2.0,59,0.00,,,0.00,0.000000,,2013-09-14 11:00:00,
2013-09-14 04:22:00,62.0,47.0,-100.00,NNE,16,1.0,2.0,59,0.00,,,0.00,0.000000,,2013-09-14 11:22:00,
2013-09-14 04:33:00,62.0,47.0,-100.00,NNE,16,1.0,2.0,59,0.00,,,0.00,0.000000,,2013-09-14 11:33:00,
2013-09-14 04:42:00,62.0,47.0,-100.00,NNE,16,1.0,2.0,59,0.00,,,0.00,0.000000,,2013-09-14 11:42:00,
2013-09-14 04:52:00,62.0,47.0,-100.00,NNE,16,1.0,2.0,59,0.00,,,0.00,0.000000,,2013-09-14 11:52:00,
2013-09-14 05:00:00,62.0,48.0,-100.00,North,357,1.0,3.0,60,0.00,,,0.00,0.000000,,2013-09-14 12:00:00,
2013-09-14 05:42:00,62.0,48.0,-100.00,North,357,1.0,3.0,60,0.00,,,0.00,0.000000,,2013-09-14 12:42:00,
2013-09-14 05:52:00,62.0,48.0,-100.00,North,357,1.0,3.0,60,0.00,,,0.00,0.000000,,2013-09-14 12:52:00,
2013-09-14 06:00:00,60.0,47.0,-100.00,NE,37,0.0,2.0,61,0.00,,,0.00,0.000000,,2013-09-14 13:00:00,
2013-09-14 06:42:00,60.0,47.0,-100.00,NE,37,0.0,2.0,61,0.00,,,0.00,0.000000,,2013-09-14 13:42:00,
2013-09-14 06:52:00,60.0,47.0,-100.00,NE,37,0.0,2.0,61,0.00,,,0.00,0.000000,,2013-09-14 13:52:00,
2013-09-14 07:00:00,61.0,46.0,-100.00,WNW,299,0.0,4.0,58,0.00,,,-99.99,0.000000,,2013-09-14 14:00:00,
2013-09-14 07:42:00,61.0,46.0,-100.00,WNW,299,0.0,4.0,58,0.00,,,-99.99,0.000000,,2013-09-14 14:42:00,
2013-09-14 07:52:00,61.0,46.0,-100.00,WNW,299,0.0,4.0,58,0.00,,,-99.99,0.000000,,2013-09-14 14:52:00,
2013-09-14 08:43:00,60.0,35.0,-100.00,NNE,19,0.0,2.0,39,0.00,,,0.00,7.000000,,2013-09-14 15:43:00,
2013-09-14 09:00:00,69.0,39.0,-100.00,ESE,110,0.0,4.0,34,-99.99,,,0.00,163.000000,,2013-09-14 16:00:00,
2013-09-14 09:44:00,69.0,39.0,-100.00,ESE,110,0.0,4.0,34,-99.99,,,0.00,163.000000,,2013-09-14 16:44:00,
2013-09-14 09:54:00,69.0,39.0,-100.00,ESE,110,0.0,4.0,34,-99.99,,,0.00,163.000000,,2013-09-14 16:54:00,
2013-09-14 10:00:00,77.0,41.0,-100.00,NE,53,2.0,5.0,28,0.00,,,0.00,347.000000,,2013-09-14 17:00:00,
2013-09-14 10:43:00,77.0,41.0,-100.00,NE,53,2.0,5.0,28,0.00,,,0.00,347.000000,,2013-09-14 17:43:00,
2013-09-14 10:54:00,77.0,41.0,-100.00,NE,53,2.0,5.0,28,0.00,,,0.00,347.000000,,2013-09-14 17:54:00,
2013-09-14 11:00:00,82.0,38.0,-100.00,East,80,2.0,5.0,21,0.00,,,0.00,453.000000,,2013-09-14 18:00:00,
2013-09-14 11:22:00,82.0,38.0,-100.00,East,80,2.0,5.0,21,0.00,,,0.00,453.000000,,2013-09-14 18:22:00,
2013-09-14 11:32:00,82.0,38.0,-100.00,East,80,2.0,5.0,21,0.00,,,0.00,453.000000,,2013-09-14 18:32:00,
2013-09-14 11:43:00,82.0,38.0,-100.00,East,80,2.0,5.0,21,0.00,,,0.00,453.000000,,2013-09-14 18:43:00,
2013-09-14 11:52:00,82.0,38.0,-100.00,East,80,2.0,5.0,21,0.00,,,0.00,453.000000,,2013-09-14 18:52:00,
2013-09-14 12:00:00,87.0,35.0,-100.00,SSW,209,3.0,10.0,16,0.00,,,0.00,703.000000,,2013-09-14 19:00:00,
2013-09-14 12:22:00,87.0,35.0,-100.00,SSW,209,3.0,10.0,16,0.00,,,0.00,703.000000,,2013-09-14 19:22:00,
2013-09-14 12:32:00,87.0,35.0,-100.00,SSW,209,3.0,10.0,16,0.00,,,0.00,703.000000,,2013-09-14 19:32:00,
2013-09-14 12:42:00,87.0,35.0,-100.00,SSW,209,3.0,10.0,16,0.00,,,0.00,703.000000,,2013-09-14 19:42:00,
2013-09-14 12:52:00,87.0,35.0,-100.00,SSW,209,3.0,10.0,16,0.00,,,0.00,703.000000,,2013-09-14 19:52:00,
2013-09-14 13:00:00,91.0,44.0,-100.00,SSW,208,3.0,10.0,20,0.00,,,0.00,907.000000,,2013-09-14 20:00:00,
2013-09-14 13:42:00,91.0,44.0,-100.00,SSW,208,3.0,10.0,20,0.00,,,0.00,907.000000,,2013-09-14 20:42:00,
2013-09-14 13:52:00,91.0,44.0,-100.00,SSW,208,3.0,10.0,20,0.00,,,0.00,907.000000,,2013-09-14 20:52:00,
2013-09-14 14:00:00,86.0,39.0,-100.00,ESE,109,5.0,13.0,19,-99.99,,,0.00,670.000000,,2013-09-14 21:00:00,
2013-09-14 14:44:00,86.0,39.0,-100.00,ESE,109,5.0,13.0,19,-99.99,,,0.00,670.000000,,2013-09-14 21:44:00,
2013-09-14 14:54:00,86.0,39.0,-100.00,ESE,109,5.0,13.0,19,-99.99,,,0.00,670.000000,,2013-09-14 21:54:00,
2013-09-14 15:00:00,83.0,31.0,-100.00,North,2,1.0,11.0,15,0.00,,,0.00,317.000000,,2013-09-14 22:00:00,
2013-09-14 15:42:00,83.0,31.0,-100.00,North,2,1.0,11.0,15,0.00,,,0.00,317.000000,,2013-09-14 22:42:00,
2013-09-14 15:53:00,83.0,31.0,-100.00,North,2,1.0,11.0,15,0.00,,,0.00,317.000000,,2013-09-14 22:53:00,
2013-09-14 16:00:00,90.0,41.0,-100.00,WSW,239,7.0,8.0,18,0.00,,,0.00,659.000000,,2013-09-14 23:00:00,
2013-09-14 16:42:00,90.0,41.0,-100.00,WSW,239,7.0,8.0,18,0.00,,,0.00,659.000000,,2013-09-14 23:42:00,
2013-09-14 16:53:00,90.0,41.0,-100.00,WSW,239,7.0,8.0,18,0.00,,,0.00,659.000000,,2013-09-14 23:53:00,
2013-09-14 17:00:00,82.0,26.0,-100.00,WNW,294,3.0,16.0,13,0.00,,,0.00,645.000000,,2013-09-15 00:00:00,
2013-09-14 17:53:00,82.0,26.0,-100.00,WNW,294,3.0,16.0,13,0.00,,,0.00,645.000000,,2013-09-15 00:53:00,
2013-09-14 18:00:00,87.0,35.0,-100.00,NNE,17,4.0,14.0,16,0.00,,,0.00,492.000000,,2013-09-15 01:00:00,
2013-09-14 18:22:00,87.0,35.0,-100.00,NNE,17,4.0,14.0,16,0.00,,,0.00,492.000000,,2013-09-15 01:22:00,
2013-09-14 18:32:00,87.0,35.0,-100.00,NNE,17,4.0,14.0,16,0.00,,,0.00,492.000000,,2013-09-15 01:32:00,
2013-09-14 18:42:00,87.0,35.0,-100.00,NNE,17,4.0,14.0,16,0.00,,,0.00,492.000000,,2013-09-15 01:42:00,
2013-09-14 18:52:00,87.0,35.0,-100.00,NNE,17,4.0,14.0,16,0.00,,,0.00,492.000000,,2013-09-15 01:52:00,
2013-09-14 19:00:00,85.0,45.0,-100.00,WNW,290,4.0,15.0,25,-99.99,,,0.00,298.000000,,2013-09-15 02:00:00,
2013-09-14 19:22:00,85.0,45.0,-100.00,WNW,290,4.0,15.0,25,-99.99,,,0.00,298.000000,,2013-09-15 02:22:00,
2013-09-14 19:32:00,85.0,45.0,-100.00,WNW,290,4.0,15.0,25,-99.99,,,0.00,298.000000,,2013-09-15 02:32:00,
2013-09-14 19:52:00,85.0,45.0,-100.00,WNW,290,4.0,15.0,25,-99.99,,,0.00,298.000000,,2013-09-15 02:52:00,
2013-09-14 20:00:00,-999.0,-99.9,-100.00,WSW,252,4.0,13.0,-999,-99.99,,,-99.99,68.000000,,2013-09-15 03:00:00,
2013-09-14 20:22:00,76.0,45.0,-100.00,WSW,252,4.0,13.0,33,-99.99,,,0.00,68.000000,,2013-09-15 03:22:00,
2013-09-14 20:34:00,76.0,45.0,-100.00,WSW,252,4.0,13.0,33,-99.99,,,0.00,68.000000,,2013-09-15 03:34:00,
2013-09-14 20:44:00,76.0,45.0,-100.00,WSW,252,4.0,13.0,33,-99.99,,,0.00,68.000000,,2013-09-15 03:44:00,
2013-09-14 20:55:00,76.0,45.0,-100.00,WSW,252,4.0,13.0,33,-99.99,,,0.00,68.000000,,2013-09-15 03:55:00,
2013-09-14 21:00:00,71.0,46.0,-100.00,West,263,1.0,10.0,41,0.00,,,0.00,0.000000,,2013-09-15 04:00:00,
2013-09-14 21:24:00,71.0,46.0,-100.00,West,263,1.0,10.0,41,0.00,,,0.00,0.000000,,2013-09-15 04:24:00,
2013-09-14 21:34:00,71.0,46.0,-100.00,West,263,1.0,10.0,41,0.00,,,0.00,0.000000,,2013-09-15 04:34:00,
2013-09-14 21:54:00,71.0,46.0,-100.00,West,263,1.0,10.0,41,0.00,,,0.00,0.000000,,2013-09-15 04:54:00,
2013-09-14 22:00:00,68.0,46.0,-100.00,NW,304,0.0,11.0,46,0.00,,,0.00,0.000000,,2013-09-15 05:00:00,
2013-09-14 22:23:00,68.0,46.0,-100.00,NW,304,0.0,11.0,46,0.00,,,0.00,0.000000,,2013-09-15 05:23:00,
2013-09-14 22:34:00,68.0,46.0,-100.00,NW,304,0.0,11.0,46,0.00,,,0.00,0.000000,,2013-09-15 05:34:00,
2013-09-14 22:42:00,68.0,46.0,-100.00,NW,304,0.0,11.0,46,0.00,,,0.00,0.000000,,2013-09-15 05:42:00,
2013-09-14 22:52:00,68.0,46.0,-100.00,NW,304,0.0,11.0,46,0.00,,,0.00,0.000000,,2013-09-15 05:52:00,
2013-09-14 23:00:00,67.0,44.0,-100.00,WNW,289,2.0,3.0,44,0.00,,,0.00,0.000000,,2013-09-15 06:00:00,
2013-09-14 23:22:00,67.0,44.0,-100.00,WNW,289,2.0,3.0,44,0.00,,,0.00,0.000000,,2013-09-15 06:22:00,
2013-09-14 23:33:00,67.0,44.0,-100.00,WNW,289,2.0,3.0,44,0.00,,,0.00,0.000000,,2013-09-15 06:33:00,
2013-09-14 23:42:00,67.0,44.0,-100.00,WNW,289,2.0,3.0,44,0.00,,,0.00,0.000000,,2013-09-15 06:42:00,
2013-09-14 23:52:00,67.0,44.0,-100.00,WNW,289,2.0,3.0,44,0.00,,,0.00,0.000000,,2013-09-15 06:52:00,